Terminal Aerodrome Forecast
Issued by NWS

Current Version | Previous Version | Text Only | Print | Product List | Glossary On
Versions: 1 2 3 4 5 6 7 8 9 10 11 12 13 14
000
FTUS44 KBMX 170539
TAFTCL
TAF
KTCL 170539Z 1706/1806 08002KT P6SM BKN100
     FM171400 03005KT 6SM -RA BR OVC025
     FM171600 04006KT 4SM -RA BR OVC015
     FM171900 06007KT 4SM -RA BR OVC007
     FM180000 05003KT 5SM BR OVC007=

USA.gov is the U.S. government's official web portal to all federal, state and local government web resources and services.